createdAt,value
2023-08-31T00:01:13.492Z,19.41
2023-08-31T00:03:41.220Z,19.35
2023-08-31T00:06:08.787Z,19.33
2023-08-31T00:08:36.359Z,19.27
2023-08-31T00:11:04.069Z,19.33
2023-08-31T00:13:31.468Z,19.39
2023-08-31T00:15:59.573Z,19.29
2023-08-31T00:18:27.674Z,19.26
2023-08-31T00:20:55.204Z,19.41
2023-08-31T00:23:22.701Z,19.44
2023-08-31T00:25:50.457Z,19.39
2023-08-31T00:28:19.451Z,19.42
2023-08-31T00:30:47.470Z,19.43
2023-08-31T00:33:16.559Z,19.40
2023-08-31T00:35:47.163Z,19.49
2023-08-31T00:38:15.600Z,19.46
2023-08-31T00:40:46.588Z,19.45
2023-08-31T00:43:19.017Z,19.47
2023-08-31T00:46:00.330Z,19.56
2023-08-31T00:48:28.132Z,19.40
2023-08-31T00:50:55.983Z,19.42
2023-08-31T00:53:24.306Z,19.43
2023-08-31T00:55:52.267Z,19.49
2023-08-31T00:58:20.345Z,19.50
2023-08-31T01:01:03.045Z,19.53
2023-08-31T01:04:03.506Z,19.49
2023-08-31T01:07:10.130Z,19.44
2023-08-31T01:09:46.583Z,19.41
2023-08-31T01:12:22.333Z,19.45
2023-08-31T01:15:00.557Z,19.32
2023-08-31T01:17:29.811Z,19.40
2023-08-31T01:20:00.469Z,19.40
2023-08-31T01:22:38.962Z,19.45
2023-08-31T01:25:10.067Z,19.44
2023-08-31T01:27:38.753Z,19.52
2023-08-31T01:30:07.363Z,19.47
2023-08-31T01:32:35.364Z,19.42
2023-08-31T01:35:06.299Z,19.58
2023-08-31T01:37:52.534Z,19.49
2023-08-31T01:40:24.956Z,19.50
2023-08-31T01:42:52.631Z,19.55
2023-08-31T01:45:22.381Z,19.56
2023-08-31T01:47:50.284Z,19.53
2023-08-31T01:50:19.702Z,19.54
2023-08-31T01:52:47.501Z,19.56
2023-08-31T01:55:16.915Z,19.54
2023-08-31T01:57:44.424Z,19.65
2023-08-31T02:00:12.773Z,19.65
2023-08-31T02:02:42.728Z,19.71
2023-08-31T02:05:11.047Z,19.75
2023-08-31T02:07:38.656Z,19.75
2023-08-31T02:10:09.527Z,19.75
2023-08-31T02:12:38.214Z,19.68
2023-08-31T02:15:07.040Z,19.68
2023-08-31T02:17:35.637Z,19.72
2023-08-31T02:20:05.837Z,19.73
2023-08-31T02:22:35.235Z,19.68
2023-08-31T02:25:02.961Z,19.63
2023-08-31T02:27:30.384Z,19.67
2023-08-31T02:29:57.998Z,19.61
2023-08-31T02:32:25.745Z,19.58
2023-08-31T02:34:53.525Z,19.53
2023-08-31T02:37:20.933Z,19.61
2023-08-31T02:39:48.774Z,19.60
2023-08-31T02:42:16.166Z,19.62
2023-08-31T02:44:43.609Z,19.58
2023-08-31T02:47:11.398Z,19.57
2023-08-31T02:49:38.868Z,19.52
2023-08-31T02:52:06.443Z,19.54
2023-08-31T02:54:34.183Z,19.57
2023-08-31T02:57:01.652Z,19.54
2023-08-31T02:59:29.552Z,19.57
2023-08-31T03:01:57.364Z,19.57
2023-08-31T03:04:25.906Z,19.48
2023-08-31T03:06:53.358Z,19.45
2023-08-31T03:09:21.405Z,19.43
2023-08-31T03:11:48.978Z,19.46
2023-08-31T03:14:16.387Z,19.36
2023-08-31T03:16:44.102Z,19.34
2023-08-31T03:19:11.626Z,19.41
2023-08-31T03:21:39.179Z,19.34
2023-08-31T03:24:07.074Z,19.28
2023-08-31T03:26:35.063Z,19.24
2023-08-31T03:29:04.725Z,19.36
2023-08-31T03:31:33.041Z,19.32
2023-08-31T03:34:00.456Z,19.39
2023-08-31T03:36:28.335Z,19.26
2023-08-31T03:38:56.109Z,19.21
2023-08-31T03:41:23.710Z,19.31
2023-08-31T03:43:51.427Z,19.30
2023-08-31T03:46:22.837Z,19.22
2023-08-31T03:48:50.364Z,19.20
2023-08-31T03:51:17.803Z,19.17
2023-08-31T03:53:46.520Z,19.12
2023-08-31T03:56:14.016Z,19.06
2023-08-31T03:58:42.929Z,19.02
2023-08-31T04:01:11.902Z,19.03
2023-08-31T04:03:39.843Z,19.00
2023-08-31T04:06:07.600Z,18.97
2023-08-31T04:08:35.065Z,19.02
2023-08-31T04:11:04.709Z,19.00
2023-08-31T04:13:32.129Z,19.13
2023-08-31T04:15:59.611Z,19.10
2023-08-31T04:18:27.422Z,19.12
2023-08-31T04:20:55.805Z,19.16
2023-08-31T04:23:23.261Z,19.18
2023-08-31T04:25:52.690Z,19.19
2023-08-31T04:28:20.201Z,19.19
2023-08-31T04:30:47.633Z,19.27
2023-08-31T04:33:15.514Z,19.14
2023-08-31T04:35:43.481Z,19.15
2023-08-31T04:38:11.153Z,19.15
2023-08-31T04:40:38.806Z,19.17
2023-08-31T04:43:06.249Z,19.21
2023-08-31T04:45:33.732Z,19.20
2023-08-31T04:48:01.503Z,19.16
2023-08-31T04:50:29.957Z,19.24
2023-08-31T04:52:57.569Z,19.23
2023-08-31T04:55:26.415Z,19.20
2023-08-31T04:57:53.878Z,19.33
2023-08-31T05:00:21.636Z,19.27
2023-08-31T05:02:49.329Z,19.33
2023-08-31T05:05:16.830Z,19.33
2023-08-31T05:07:44.492Z,19.48
2023-08-31T05:10:12.488Z,19.43
2023-08-31T05:12:39.944Z,19.45
2023-08-31T05:15:07.854Z,19.54
2023-08-31T05:17:35.687Z,19.62
2023-08-31T05:20:05.279Z,19.68
2023-08-31T05:22:32.722Z,19.83
2023-08-31T05:25:01.678Z,19.90
2023-08-31T05:27:29.524Z,19.97
2023-08-31T05:29:56.938Z,20.01
2023-08-31T05:32:24.604Z,19.97
2023-08-31T05:34:51.989Z,20.06
2023-08-31T05:37:19.369Z,20.03
2023-08-31T05:39:51.001Z,20.00
2023-08-31T05:42:19.242Z,20.13
2023-08-31T05:44:47.015Z,20.17
2023-08-31T05:47:14.397Z,20.17
2023-08-31T05:49:41.795Z,20.26
2023-08-31T05:52:09.703Z,20.29
2023-08-31T05:54:37.111Z,20.40
2023-08-31T05:57:06.621Z,20.64
2023-08-31T05:59:34.350Z,20.78
2023-08-31T06:02:01.871Z,20.86
2023-08-31T06:04:29.717Z,20.99
2023-08-31T06:06:57.198Z,20.91
2023-08-31T06:09:24.653Z,21.11
2023-08-31T06:11:52.337Z,21.26
2023-08-31T06:14:20.625Z,21.27
2023-08-31T06:16:48.333Z,21.21
2023-08-31T06:19:16.664Z,21.23
2023-08-31T06:21:44.321Z,21.37
2023-08-31T06:24:14.025Z,21.34
2023-08-31T06:26:42.215Z,21.48
2023-08-31T06:29:11.742Z,21.55
2023-08-31T06:31:39.182Z,21.64
2023-08-31T06:34:06.933Z,21.39
2023-08-31T06:36:34.986Z,21.47
2023-08-31T06:39:02.394Z,21.35
2023-08-31T06:41:30.219Z,21.26
2023-08-31T06:43:57.726Z,21.40
2023-08-31T06:46:25.630Z,21.38
2023-08-31T06:48:53.875Z,21.62
2023-08-31T06:51:23.125Z,21.84
2023-08-31T06:53:52.785Z,21.86
2023-08-31T06:56:20.411Z,21.91
2023-08-31T06:58:47.823Z,21.88
2023-08-31T07:01:15.666Z,21.82
2023-08-31T07:03:43.347Z,21.96
2023-08-31T07:06:10.799Z,21.94
2023-08-31T07:08:41.630Z,21.90
2023-08-31T07:11:09.062Z,21.99
2023-08-31T07:13:36.420Z,22.12
2023-08-31T07:16:04.148Z,22.20
2023-08-31T07:18:31.545Z,22.34
2023-08-31T07:20:59.087Z,22.46
2023-08-31T07:23:26.874Z,22.56
2023-08-31T07:25:58.961Z,22.58
2023-08-31T07:28:27.147Z,22.76
2023-08-31T07:31:07.460Z,22.87
2023-08-31T07:33:36.984Z,22.80
2023-08-31T07:36:09.013Z,22.97
2023-08-31T07:38:36.734Z,22.99
2023-08-31T07:41:05.485Z,23.08
2023-08-31T07:43:33.103Z,23.07
2023-08-31T07:46:00.905Z,23.21
2023-08-31T07:48:28.502Z,23.17
2023-08-31T07:50:56.565Z,23.30
2023-08-31T07:53:24.278Z,23.42
2023-08-31T07:55:55.906Z,23.25
2023-08-31T07:58:24.755Z,23.44
2023-08-31T08:00:56.172Z,23.45
2023-08-31T08:03:24.730Z,23.78
2023-08-31T08:05:52.626Z,23.91
2023-08-31T08:08:20.017Z,23.91
2023-08-31T08:10:47.957Z,23.95
2023-08-31T08:13:16.528Z,23.43
2023-08-31T08:15:43.954Z,23.73
2023-08-31T08:18:11.696Z,23.82
2023-08-31T08:20:39.221Z,24.05
2023-08-31T08:23:07.211Z,23.97
2023-08-31T08:25:35.412Z,23.96
2023-08-31T08:28:04.308Z,23.91
2023-08-31T08:30:31.772Z,23.86
2023-08-31T08:32:59.982Z,23.91
2023-08-31T08:35:27.460Z,24.10
2023-08-31T08:37:54.865Z,24.20
2023-08-31T08:40:22.616Z,24.34
2023-08-31T08:42:51.642Z,24.38
2023-08-31T08:45:20.497Z,24.52
2023-08-31T08:47:48.259Z,24.57
2023-08-31T08:50:16.102Z,24.62
2023-08-31T08:52:44.239Z,24.64
2023-08-31T08:55:12.824Z,24.64
2023-08-31T08:57:40.827Z,24.75
2023-08-31T09:00:08.910Z,24.69
2023-08-31T09:02:36.850Z,24.80
2023-08-31T09:05:04.853Z,24.85
2023-08-31T09:07:36.399Z,25.15
2023-08-31T09:10:05.362Z,24.95
2023-08-31T09:12:33.360Z,25.27
2023-08-31T09:15:07.831Z,25.36
2023-08-31T09:17:40.784Z,25.52
2023-08-31T09:20:10.109Z,25.64
2023-08-31T09:22:37.915Z,25.75
2023-08-31T09:25:09.874Z,25.86
2023-08-31T09:27:41.585Z,25.89
2023-08-31T09:30:09.512Z,26.02
2023-08-31T09:32:37.416Z,25.87
2023-08-31T09:35:17.793Z,26.07
2023-08-31T09:37:58.301Z,26.13
2023-08-31T09:40:26.120Z,26.13
2023-08-31T09:42:53.689Z,26.26
2023-08-31T09:45:44.775Z,26.52
2023-08-31T09:48:16.367Z,26.67
2023-08-31T09:50:47.121Z,26.63
2023-08-31T09:53:17.446Z,26.67
2023-08-31T09:55:45.324Z,26.35
2023-08-31T09:58:16.598Z,26.27
2023-08-31T10:00:45.050Z,26.35
2023-08-31T10:03:19.030Z,26.52
2023-08-31T10:05:48.798Z,26.63
2023-08-31T10:08:17.036Z,26.51
2023-08-31T10:10:45.188Z,26.31
2023-08-31T10:13:13.646Z,26.24
2023-08-31T10:15:43.004Z,25.89
2023-08-31T10:18:10.466Z,26.17
2023-08-31T10:20:37.948Z,26.17
2023-08-31T10:23:06.815Z,25.91
2023-08-31T10:26:00.986Z,26.03
2023-08-31T10:28:29.575Z,25.67
2023-08-31T10:31:08.422Z,25.59
2023-08-31T10:33:40.373Z,25.82
2023-08-31T10:36:15.647Z,25.71
2023-08-31T10:39:00.687Z,25.60
2023-08-31T10:41:39.880Z,25.60
2023-08-31T10:44:20.974Z,25.64
2023-08-31T10:46:49.864Z,25.60
2023-08-31T10:49:20.079Z,25.65
2023-08-31T10:51:55.595Z,25.48
2023-08-31T10:54:36.700Z,25.45
2023-08-31T10:57:08.306Z,25.54
2023-08-31T10:59:46.517Z,25.57
2023-08-31T11:02:52.624Z,25.66
2023-08-31T11:05:23.511Z,25.78
2023-08-31T11:07:54.290Z,25.67
2023-08-31T11:10:29.123Z,25.58
2023-08-31T11:12:58.488Z,25.65
2023-08-31T11:15:27.694Z,25.75
2023-08-31T11:17:56.191Z,25.86
2023-08-31T11:20:25.112Z,25.87
2023-08-31T11:22:55.814Z,26.03
2023-08-31T11:25:25.367Z,26.19
2023-08-31T11:27:57.380Z,26.22
2023-08-31T11:30:26.776Z,26.55
2023-08-31T11:32:55.027Z,26.78
2023-08-31T11:35:24.278Z,26.88
2023-08-31T11:37:56.471Z,26.93
2023-08-31T11:40:24.352Z,26.93
2023-08-31T11:42:52.841Z,26.98
2023-08-31T11:45:21.837Z,27.02
2023-08-31T11:47:50.694Z,26.93
2023-08-31T11:50:18.721Z,26.95
2023-08-31T11:52:46.283Z,26.77
2023-08-31T11:55:16.036Z,26.79
2023-08-31T11:57:51.204Z,26.91
2023-08-31T12:00:23.432Z,26.83
2023-08-31T12:03:00.537Z,26.90
2023-08-31T12:05:29.219Z,26.74
2023-08-31T12:07:57.322Z,26.75
2023-08-31T12:10:26.832Z,26.73
2023-08-31T12:12:56.681Z,26.55
2023-08-31T12:15:24.431Z,26.66
2023-08-31T12:17:56.385Z,26.80
2023-08-31T12:20:28.040Z,26.81
2023-08-31T12:22:55.584Z,26.68
2023-08-31T12:25:23.315Z,26.73
2023-08-31T12:27:51.283Z,26.53
2023-08-31T12:30:18.809Z,26.52
2023-08-31T12:32:46.292Z,26.45
2023-08-31T12:35:15.477Z,26.40
2023-08-31T12:37:43.170Z,26.57
2023-08-31T12:40:11.302Z,26.45
2023-08-31T12:42:39.019Z,26.41
2023-08-31T12:45:07.001Z,26.59
2023-08-31T12:47:35.821Z,26.50
2023-08-31T12:50:04.374Z,26.47
2023-08-31T12:52:31.832Z,26.50
2023-08-31T12:54:59.260Z,26.62
2023-08-31T12:57:27.002Z,26.65
2023-08-31T12:59:54.407Z,26.76
2023-08-31T13:02:21.921Z,26.80
2023-08-31T13:04:50.939Z,26.90
2023-08-31T13:07:18.638Z,26.87
2023-08-31T13:09:47.331Z,26.73
2023-08-31T13:12:16.784Z,26.83
2023-08-31T13:14:47.588Z,26.85
2023-08-31T13:17:15.344Z,26.96
2023-08-31T13:19:43.063Z,26.90
2023-08-31T13:22:16.357Z,26.77
2023-08-31T13:24:44.162Z,26.79
2023-08-31T13:27:11.893Z,26.84
2023-08-31T13:29:39.325Z,26.83
2023-08-31T13:32:07.109Z,26.82
2023-08-31T13:34:35.123Z,26.79
2023-08-31T13:37:05.069Z,26.94
2023-08-31T13:39:36.774Z,26.84
2023-08-31T13:42:05.054Z,26.85
2023-08-31T13:44:32.924Z,26.74
2023-08-31T13:47:00.592Z,26.75
2023-08-31T13:49:29.028Z,26.81
2023-08-31T13:51:56.930Z,26.84
2023-08-31T13:54:24.415Z,26.91
2023-08-31T13:56:52.609Z,26.83
2023-08-31T13:59:20.316Z,26.87
2023-08-31T14:01:47.788Z,26.96
2023-08-31T14:04:15.556Z,26.81
2023-08-31T14:06:43.034Z,26.86
2023-08-31T14:09:10.485Z,26.92
2023-08-31T14:11:38.252Z,26.84
2023-08-31T14:14:15.845Z,26.83
2023-08-31T14:16:43.666Z,26.72
2023-08-31T14:19:12.354Z,26.67
2023-08-31T14:21:39.912Z,26.87
2023-08-31T14:24:08.114Z,26.72
2023-08-31T14:26:35.584Z,26.72
2023-08-31T14:29:03.102Z,26.65
2023-08-31T14:31:30.842Z,26.40
2023-08-31T14:33:58.262Z,26.57
2023-08-31T14:36:27.172Z,26.50
2023-08-31T14:38:55.086Z,26.34
2023-08-31T14:41:23.207Z,26.54
2023-08-31T14:43:54.123Z,26.50
2023-08-31T14:46:25.337Z,26.49
2023-08-31T14:48:54.166Z,26.52
2023-08-31T14:51:22.579Z,26.54
2023-08-31T14:53:50.018Z,26.50
2023-08-31T14:56:17.402Z,26.42
2023-08-31T14:58:45.083Z,26.39
2023-08-31T15:01:12.641Z,26.11
2023-08-31T15:03:40.152Z,26.16
2023-08-31T15:06:07.869Z,26.24
2023-08-31T15:08:40.804Z,26.23
2023-08-31T15:11:09.240Z,26.23
2023-08-31T15:13:36.721Z,26.18
2023-08-31T15:16:04.242Z,26.06
2023-08-31T15:18:32.107Z,26.09
2023-08-31T15:20:59.607Z,26.18
2023-08-31T15:23:27.309Z,26.23
2023-08-31T15:26:05.173Z,26.20
2023-08-31T15:28:32.609Z,26.28
2023-08-31T15:31:00.393Z,26.15
2023-08-31T15:33:28.650Z,26.26
2023-08-31T15:36:09.587Z,26.27
2023-08-31T15:38:38.357Z,26.37
2023-08-31T15:41:07.999Z,26.27
2023-08-31T15:43:38.049Z,26.23
2023-08-31T15:46:05.821Z,26.19
2023-08-31T15:48:33.238Z,26.12
2023-08-31T15:51:00.921Z,26.06
2023-08-31T15:53:29.380Z,26.08
2023-08-31T15:55:57.048Z,26.18
2023-08-31T15:58:27.595Z,26.16
2023-08-31T16:01:05.620Z,26.13
2023-08-31T16:03:35.332Z,26.02
2023-08-31T16:06:05.359Z,26.02
2023-08-31T16:08:33.154Z,26.09
2023-08-31T16:11:04.654Z,26.02
2023-08-31T16:13:32.526Z,25.99
2023-08-31T16:16:00.193Z,25.95
2023-08-31T16:18:28.055Z,25.76
2023-08-31T16:20:55.438Z,25.83
2023-08-31T16:23:25.592Z,25.89
2023-08-31T16:25:53.223Z,25.92
2023-08-31T16:28:20.971Z,25.86
2023-08-31T16:30:48.744Z,25.89
2023-08-31T16:33:16.550Z,25.94
2023-08-31T16:35:44.135Z,25.87
2023-08-31T16:38:12.208Z,25.82
2023-08-31T16:40:40.174Z,25.75
2023-08-31T16:43:07.590Z,25.75
2023-08-31T16:45:35.285Z,25.71
2023-08-31T16:48:03.176Z,25.67
2023-08-31T16:50:35.297Z,25.65
2023-08-31T16:53:04.329Z,25.64
2023-08-31T16:55:32.184Z,25.64
2023-08-31T16:58:00.047Z,25.65
2023-08-31T17:00:27.830Z,25.56
2023-08-31T17:02:55.633Z,25.49
2023-08-31T17:05:23.230Z,25.45
2023-08-31T17:07:50.964Z,25.40
2023-08-31T17:10:18.515Z,25.33
2023-08-31T17:12:46.401Z,25.27
2023-08-31T17:15:14.441Z,25.22
2023-08-31T17:17:45.576Z,25.16
2023-08-31T17:20:19.399Z,25.10
2023-08-31T17:22:47.619Z,25.00
2023-08-31T17:25:15.243Z,24.86
2023-08-31T17:27:42.983Z,24.84
2023-08-31T17:30:10.660Z,24.73
2023-08-31T17:32:38.425Z,24.60
2023-08-31T17:35:07.483Z,24.56
2023-08-31T17:37:35.434Z,24.46
2023-08-31T17:40:09.241Z,24.36
2023-08-31T17:42:38.322Z,24.31
2023-08-31T17:45:06.197Z,24.26
2023-08-31T17:47:33.780Z,24.17
2023-08-31T17:50:01.789Z,24.10
2023-08-31T17:52:29.438Z,24.05
2023-08-31T17:54:56.946Z,23.94
2023-08-31T17:57:29.242Z,23.97
2023-08-31T17:59:56.661Z,23.85
2023-08-31T18:02:24.168Z,23.82
2023-08-31T18:04:52.374Z,23.75
2023-08-31T18:07:19.897Z,23.68
2023-08-31T18:09:47.386Z,23.61
2023-08-31T18:12:15.232Z,23.50
2023-08-31T18:14:44.702Z,23.48
2023-08-31T18:17:13.249Z,23.35
2023-08-31T18:19:40.987Z,23.30
2023-08-31T18:22:08.409Z,23.23
2023-08-31T18:24:37.865Z,23.16
2023-08-31T18:27:11.055Z,23.05
2023-08-31T18:29:38.695Z,23.05
2023-08-31T18:32:06.792Z,23.01
2023-08-31T18:34:34.306Z,22.92
2023-08-31T18:37:01.822Z,22.94
2023-08-31T18:39:29.532Z,22.87
2023-08-31T18:41:57.489Z,22.77
2023-08-31T18:44:25.460Z,22.78
2023-08-31T18:46:53.199Z,22.75
2023-08-31T18:49:20.716Z,22.67
2023-08-31T18:51:48.740Z,22.54
2023-08-31T18:54:16.833Z,22.58
2023-08-31T18:56:44.265Z,22.51
2023-08-31T18:59:12.006Z,22.53
2023-08-31T19:01:39.849Z,22.53
2023-08-31T19:04:07.389Z,22.44
2023-08-31T19:06:34.895Z,22.36
2023-08-31T19:09:04.655Z,22.40
2023-08-31T19:11:32.205Z,22.35
2023-08-31T19:13:59.669Z,22.22
2023-08-31T19:16:27.391Z,22.24
2023-08-31T19:18:55.138Z,22.20
2023-08-31T19:21:24.514Z,22.15
2023-08-31T19:23:52.274Z,22.04
2023-08-31T19:26:19.806Z,22.11
2023-08-31T19:28:47.297Z,22.10
2023-08-31T19:31:14.957Z,22.06
2023-08-31T19:33:42.409Z,21.98
2023-08-31T19:36:11.233Z,21.96
2023-08-31T19:38:40.666Z,21.87
2023-08-31T19:41:08.111Z,21.84
2023-08-31T19:43:35.554Z,21.72
2023-08-31T19:46:03.951Z,21.78
2023-08-31T19:48:32.841Z,21.72
2023-08-31T19:51:09.714Z,21.58
2023-08-31T19:53:37.619Z,21.50
2023-08-31T19:56:05.958Z,21.50
2023-08-31T19:58:35.520Z,21.42
2023-08-31T20:01:03.673Z,21.43
2023-08-31T20:03:37.119Z,21.39
2023-08-31T20:06:08.431Z,21.29
2023-08-31T20:08:38.182Z,21.23
2023-08-31T20:11:06.306Z,21.24
2023-08-31T20:13:33.813Z,21.22
2023-08-31T20:16:04.239Z,21.10
2023-08-31T20:18:32.140Z,21.04
2023-08-31T20:20:59.615Z,21.02
2023-08-31T20:23:27.297Z,21.04
2023-08-31T20:25:54.745Z,20.97
2023-08-31T20:28:22.255Z,20.94
2023-08-31T20:30:50.095Z,20.87
2023-08-31T20:33:17.822Z,20.79
2023-08-31T20:35:45.308Z,20.78
2023-08-31T20:38:13.749Z,20.78
2023-08-31T20:40:41.897Z,20.67
2023-08-31T20:43:09.387Z,20.72
2023-08-31T20:45:39.477Z,20.69
2023-08-31T20:48:10.373Z,20.70
2023-08-31T20:50:38.767Z,20.55
2023-08-31T20:53:06.444Z,20.55
2023-08-31T20:55:33.961Z,20.55
2023-08-31T20:58:01.665Z,20.48
2023-08-31T21:00:29.117Z,20.51
2023-08-31T21:02:56.676Z,20.56
2023-08-31T21:05:24.391Z,20.58
2023-08-31T21:07:51.833Z,20.61
2023-08-31T21:10:19.524Z,20.48
2023-08-31T21:12:47.365Z,20.50
2023-08-31T21:15:14.773Z,20.37
2023-08-31T21:17:42.514Z,20.38
2023-08-31T21:20:10.553Z,20.37
2023-08-31T21:22:38.150Z,20.39
2023-08-31T21:25:06.108Z,20.40
2023-08-31T21:27:33.819Z,20.35
2023-08-31T21:30:01.286Z,20.39
2023-08-31T21:32:28.707Z,20.38
2023-08-31T21:34:56.434Z,20.38
2023-08-31T21:37:23.830Z,20.46
2023-08-31T21:39:51.275Z,20.56
2023-08-31T21:42:19.003Z,20.49
2023-08-31T21:44:46.440Z,20.49
2023-08-31T21:47:13.824Z,20.43
2023-08-31T21:49:41.535Z,20.41
2023-08-31T21:52:09.030Z,20.42
2023-08-31T21:54:36.496Z,20.48
2023-08-31T21:57:05.602Z,20.46
2023-08-31T21:59:33.031Z,20.42
2023-08-31T22:02:00.662Z,20.46
2023-08-31T22:04:29.065Z,20.49
2023-08-31T22:06:57.180Z,20.48
2023-08-31T22:09:24.969Z,20.46
2023-08-31T22:11:52.751Z,20.46
2023-08-31T22:14:20.463Z,20.41
2023-08-31T22:16:48.452Z,20.45
2023-08-31T22:19:16.605Z,20.50
2023-08-31T22:21:44.727Z,20.44
2023-08-31T22:24:12.284Z,20.50
2023-08-31T22:26:40.046Z,20.53
2023-08-31T22:29:07.592Z,20.51
2023-08-31T22:31:35.049Z,20.50
2023-08-31T22:34:03.840Z,20.57
2023-08-31T22:36:31.495Z,20.47
2023-08-31T22:38:59.960Z,20.55
2023-08-31T22:41:27.739Z,20.43
2023-08-31T22:43:56.180Z,20.57
2023-08-31T22:46:23.706Z,20.59
2023-08-31T22:48:51.419Z,20.62
2023-08-31T22:51:18.860Z,20.57
2023-08-31T22:53:46.302Z,20.53
2023-08-31T22:56:14.093Z,20.58
2023-08-31T22:58:41.556Z,20.60
2023-08-31T23:01:09.078Z,20.64
2023-08-31T23:03:36.795Z,20.63
2023-08-31T23:06:04.556Z,20.61
2023-08-31T23:08:31.952Z,20.59
2023-08-31T23:11:01.080Z,20.56
2023-08-31T23:13:28.954Z,20.47
2023-08-31T23:15:56.428Z,20.57
2023-08-31T23:18:24.792Z,20.52
2023-08-31T23:20:52.195Z,20.59
2023-08-31T23:23:19.629Z,20.57
2023-08-31T23:25:47.376Z,20.63
2023-08-31T23:28:15.096Z,20.67
2023-08-31T23:30:42.756Z,20.71
2023-08-31T23:33:11.320Z,20.71
2023-08-31T23:35:38.797Z,20.72
2023-08-31T23:38:08.384Z,20.69
2023-08-31T23:40:36.195Z,20.55
2023-08-31T23:43:04.067Z,20.61
2023-08-31T23:45:31.948Z,20.67
2023-08-31T23:47:59.914Z,20.77
2023-08-31T23:50:27.667Z,20.81
2023-08-31T23:52:55.182Z,20.73
2023-08-31T23:55:22.890Z,20.83
2023-08-31T23:57:50.370Z,20.82
